Time;durP1;ratioP1;P1;durP2;ratioP2;P2;SDS_P1;SDS_P2;PMS_P1;PMS_P2;Temp;Humidity;BMP_temperature;BMP_pressure;BME280_temperature;BME280_humidity;BME280_pressure;Samples;Min_cycle;Max_cycle;Signal;HPM_P1;HPM_P2
2022/05/27 00:01:07;;;;;;;;;;;13.50;99.90;;;;;;5065417;28;19964;-49
2022/05/27 00:03:32;;;;;;;;;;;13.50;99.90;;;;;;5071943;28;19982;-50
2022/05/27 00:05:58;;;;;;;;;;;13.50;99.90;;;;;;5070697;28;19920;-52
2022/05/27 00:08:25;;;;;;;;;;;13.50;99.90;;;;;;5066038;28;19964;-51
2022/05/27 00:10:50;;;;;;;;;;;13.50;99.90;;;;;;5064013;28;19938;-48
2022/05/27 00:13:16;;;;;;;;;;;13.50;99.90;;;;;;5068704;28;19928;-47
2022/05/27 00:15:42;;;;;;;;;;;13.50;99.90;;;;;;5066500;28;19931;-50
2022/05/27 00:18:08;;;;;;;;;;;13.50;99.90;;;;;;5068392;28;20354;-49
2022/05/27 00:20:34;;;;;;;;;;;13.50;99.90;;;;;;5052793;28;19928;-49
2022/05/27 00:23:00;;;;;;;;;;;13.50;99.90;;;;;;5071187;28;19928;-52
2022/05/27 00:25:25;;;;;;;;;;;13.50;99.90;;;;;;5071042;28;19993;-48
2022/05/27 00:27:51;;;;;;;;;;;13.50;99.90;;;;;;5069018;28;19928;-51
2022/05/27 00:30:17;;;;;;;;;;;13.50;99.90;;;;;;5063983;28;19940;-46
2022/05/27 00:32:42;;;;;;;;;;;13.50;99.90;;;;;;5050982;28;20269;-52
2022/05/27 00:35:09;;;;;;;;;;;13.50;99.90;;;;;;5068122;28;19951;-49
2022/05/27 00:37:34;;;;;;;;;;;13.50;99.90;;;;;;5065652;28;19929;-52
2022/05/27 00:40:00;;;;;;;;;;;13.50;99.90;;;;;;5068285;28;19928;-51
2022/05/27 00:42:25;;;;;;;;;;;13.50;99.90;;;;;;5067056;28;19954;-49
2022/05/27 00:44:51;;;;;;;;;;;13.50;99.90;;;;;;5067124;28;20306;-51
2022/05/27 00:47:18;;;;;;;;;;;13.40;99.90;;;;;;5066190;28;20269;-49
2022/05/27 00:49:55;;;;;;;;;;;13.40;99.90;;;;;;5068706;28;20249;-48
2022/05/27 00:52:21;;;;;;;;;;;13.40;99.90;;;;;;5068321;28;20227;-52
2022/05/27 00:54:47;;;;;;;;;;;13.40;99.90;;;;;;5069773;28;19981;-52
2022/05/27 00:57:18;;;;;;;;;;;13.40;99.90;;;;;;5069673;28;19920;-53
2022/05/27 01:00:04;;;;;;;;;;;13.40;99.90;;;;;;5067411;28;19927;-51
2022/05/27 01:02:30;;;;;;;;;;;13.40;99.90;;;;;;5062246;28;19928;-51
2022/05/27 01:04:57;;;;;;;;;;;13.40;99.90;;;;;;5066649;28;19932;-48
2022/05/27 01:07:23;;;;;;;;;;;13.50;99.90;;;;;;5068641;28;19924;-47
2022/05/27 01:09:49;;;;;;;;;;;13.50;99.90;;;;;;5067951;28;19932;-51
2022/05/27 01:12:33;;;;;;;;;;;13.50;99.90;;;;;;5068833;28;20125;-51
2022/05/27 01:15:10;;;;;;;;;;;13.50;99.90;;;;;;5065400;28;20392;-52
2022/05/27 01:18:01;;;;;;;;;;;13.50;99.90;;;;;;5067626;28;19924;-51
2022/05/27 01:20:30;;;;;;;;;;;13.60;99.90;;;;;;5069910;28;20023;-52
2022/05/27 01:23:04;;;;;;;;;;;13.60;99.90;;;;;;5066846;28;20015;-51
2022/05/27 01:25:50;;;;;;;;;;;13.50;99.90;;;;;;5065833;28;19920;-48
2022/05/27 01:28:21;;;;;;;;;;;13.60;99.90;;;;;;5061577;28;19924;-51
2022/05/27 01:31:06;;;;;;;;;;;13.50;99.90;;;;;;5069873;28;19932;-52
2022/05/27 01:33:48;;;;;;;;;;;13.50;99.90;;;;;;5064443;28;20026;-52
2022/05/27 01:36:32;;;;;;;;;;;13.50;99.90;;;;;;5065477;28;20419;-52
2022/05/27 01:38:58;;;;;;;;;;;13.50;99.90;;;;;;5051632;28;19920;-52
2022/05/27 01:41:27;;;;;;;;;;;13.50;99.90;;;;;;5065761;28;19928;-49
2022/05/27 01:43:59;;;;;;;;;;;13.50;99.90;;;;;;5068603;28;19928;-50
2022/05/27 01:46:24;;;;;;;;;;;13.50;99.90;;;;;;5071786;28;19936;-51
2022/05/27 01:48:50;;;;;;;;;;;13.50;99.90;;;;;;5067168;28;19921;-53
2022/05/27 01:51:20;;;;;;;;;;;13.50;99.90;;;;;;5050024;28;19947;-51
2022/05/27 01:53:57;;;;;;;;;;;13.50;99.90;;;;;;5066729;28;19933;-52
2022/05/27 01:56:38;;;;;;;;;;;13.40;99.90;;;;;;5060992;28;20445;-52
2022/05/27 01:59:08;;;;;;;;;;;13.40;99.90;;;;;;5066240;28;19926;-47
2022/05/27 02:01:35;;;;;;;;;;;13.30;99.90;;;;;;5066685;28;20006;-51
2022/05/27 02:04:18;;;;;;;;;;;13.30;99.90;;;;;;5072162;28;19955;-52
2022/05/27 02:06:49;;;;;;;;;;;13.20;99.90;;;;;;5063499;28;19928;-51
2022/05/27 02:09:33;;;;;;;;;;;13.20;99.90;;;;;;5059346;28;19928;-53
2022/05/27 02:12:02;;;;;;;;;;;13.10;99.90;;;;;;5063520;28;20027;-47
2022/05/27 02:14:35;;;;;;;;;;;13.00;99.90;;;;;;5063076;28;19974;-47
2022/05/27 02:17:04;;;;;;;;;;;13.00;99.90;;;;;;5067479;28;19928;-50
2022/05/27 02:19:35;;;;;;;;;;;13.00;99.90;;;;;;5060775;28;19931;-51
2022/05/27 02:22:03;;;;;;;;;;;13.00;99.90;;;;;;5062207;28;20015;-48
2022/05/27 02:24:38;;;;;;;;;;;13.00;99.90;;;;;;5066852;28;19921;-49
2022/05/27 02:27:05;;;;;;;;;;;12.90;99.90;;;;;;5062360;28;19925;-53
2022/05/27 02:29:32;;;;;;;;;;;12.90;99.90;;;;;;5068857;28;19984;-51
2022/05/27 02:32:03;;;;;;;;;;;12.90;99.90;;;;;;5061887;28;20000;-51
2022/05/27 02:37:18;;;;;;;;;;;12.90;99.90;;;;;;5062348;28;20013;-51
2022/05/27 02:39:44;;;;;;;;;;;12.90;99.90;;;;;;5065274;28;19958;-51
2022/05/27 02:42:13;;;;;;;;;;;12.90;99.90;;;;;;5068343;28;19924;-51
2022/05/27 02:44:45;;;;;;;;;;;12.90;99.90;;;;;;5068541;28;19986;-52
2022/05/27 02:47:14;;;;;;;;;;;12.90;99.90;;;;;;5070885;28;19924;-52
2022/05/27 02:49:39;;;;;;;;;;;12.90;99.90;;;;;;5063931;28;19925;-47
2022/05/27 02:52:11;;;;;;;;;;;12.90;99.90;;;;;;5066715;28;19927;-49
2022/05/27 02:54:46;;;;;;;;;;;12.90;99.90;;;;;;5068250;28;19929;-48
2022/05/27 02:57:14;;;;;;;;;;;12.90;99.90;;;;;;5063730;28;20404;-48
2022/05/27 02:59:40;;;;;;;;;;;12.90;99.90;;;;;;5071485;28;19963;-49
2022/05/27 03:02:07;;;;;;;;;;;12.90;99.90;;;;;;5065806;28;20357;-51
2022/05/27 03:04:33;;;;;;;;;;;12.90;99.90;;;;;;5067304;28;20341;-50
2022/05/27 03:07:02;;;;;;;;;;;12.90;99.90;;;;;;5062127;28;19921;-52
2022/05/27 03:09:27;;;;;;;;;;;12.90;99.90;;;;;;5067471;28;19928;-48
2022/05/27 03:12:08;;;;;;;;;;;12.90;99.90;;;;;;5061144;28;19929;-52
2022/05/27 03:14:52;;;;;;;;;;;12.90;99.90;;;;;;5063726;28;19927;-47
2022/05/27 03:17:30;;;;;;;;;;;12.90;99.90;;;;;;5068260;28;19932;-50
2022/05/27 03:20:02;;;;;;;;;;;13.00;99.90;;;;;;5062110;28;19921;-51
2022/05/27 03:22:52;;;;;;;;;;;13.00;99.90;;;;;;5064373;28;19932;-51
2022/05/27 03:25:36;;;;;;;;;;;13.00;99.90;;;;;;5065959;28;20341;-50
2022/05/27 03:28:13;;;;;;;;;;;13.00;99.90;;;;;;5067485;28;19927;-51
2022/05/27 03:30:44;;;;;;;;;;;13.00;99.90;;;;;;5062845;28;19944;-52
2022/05/27 03:33:15;;;;;;;;;;;13.00;99.90;;;;;;5049856;28;20430;-51
2022/05/27 03:35:44;;;;;;;;;;;13.00;99.90;;;;;;5069256;28;19978;-51
2022/05/27 03:38:10;;;;;;;;;;;13.00;99.90;;;;;;5069314;28;20246;-51
2022/05/27 03:40:44;;;;;;;;;;;13.00;99.90;;;;;;5064940;28;19936;-51
2022/05/27 03:43:10;;;;;;;;;;;12.90;99.90;;;;;;5069082;28;19927;-50
2022/05/27 03:45:51;;;;;;;;;;;12.90;99.90;;;;;;5067866;28;20011;-49
2022/05/27 03:48:17;;;;;;;;;;;12.80;99.90;;;;;;5066055;28;20047;-51
2022/05/27 03:50:44;;;;;;;;;;;12.80;99.90;;;;;;5069944;28;20900;-46
2022/05/27 03:53:09;;;;;;;;;;;12.80;99.90;;;;;;5070646;28;20086;-51
2022/05/27 03:55:35;;;;;;;;;;;12.70;99.90;;;;;;5059184;28;20106;-47
2022/05/27 03:58:00;;;;;;;;;;;12.70;99.90;;;;;;5065791;28;19925;-51
2022/05/27 04:00:26;;;;;;;;;;;12.70;99.90;;;;;;5070103;28;19968;-51
2022/05/27 04:02:52;;;;;;;;;;;12.70;99.90;;;;;;5064054;28;20037;-51
2022/05/27 04:05:18;;;;;;;;;;;12.60;99.90;;;;;;5068346;28;20054;-51
2022/05/27 04:07:46;;;;;;;;;;;12.60;99.90;;;;;;5069318;28;19951;-50
2022/05/27 04:10:12;;;;;;;;;;;12.60;99.90;;;;;;5061039;28;19932;-50
2022/05/27 04:12:37;;;;;;;;;;;12.60;99.90;;;;;;5067722;28;20372;-49
2022/05/27 04:15:04;;;;;;;;;;;12.60;99.90;;;;;;5068379;28;19947;-50
2022/05/27 04:17:33;;;;;;;;;;;12.60;99.90;;;;;;5069768;28;19920;-52
2022/05/27 04:20:03;;;;;;;;;;;12.70;99.90;;;;;;5068334;28;20293;-52
2022/05/27 04:22:29;;;;;;;;;;;12.70;99.90;;;;;;5066063;28;19964;-47
2022/05/27 04:24:55;;;;;;;;;;;12.70;99.90;;;;;;5069324;28;19928;-52
2022/05/27 04:27:21;;;;;;;;;;;12.70;99.90;;;;;;5068345;28;19920;-51
2022/05/27 04:29:48;;;;;;;;;;;12.70;99.90;;;;;;5067544;28;20429;-52
2022/05/27 04:32:14;;;;;;;;;;;12.80;99.90;;;;;;5064403;28;19956;-51
2022/05/27 04:34:40;;;;;;;;;;;12.80;99.90;;;;;;5070754;28;19974;-53
2022/05/27 04:37:06;;;;;;;;;;;12.80;99.90;;;;;;5065982;28;19920;-51
2022/05/27 04:39:32;;;;;;;;;;;12.80;99.90;;;;;;5065596;28;19928;-51
2022/05/27 04:41:57;;;;;;;;;;;12.80;99.90;;;;;;5050690;28;19939;-50
2022/05/27 04:44:23;;;;;;;;;;;12.80;99.90;;;;;;5076857;28;19923;-48
2022/05/27 04:46:48;;;;;;;;;;;12.80;99.90;;;;;;5068886;28;19940;-52
2022/05/27 04:51:59;;;;;;;;;;;12.80;99.90;;;;;;5071471;28;20400;-51
2022/05/27 04:54:24;;;;;;;;;;;12.80;99.90;;;;;;5066485;28;19920;-52
2022/05/27 04:56:50;;;;;;;;;;;12.80;99.90;;;;;;5069997;28;19927;-51
2022/05/27 04:59:15;;;;;;;;;;;12.80;99.90;;;;;;5070499;28;20078;-51
2022/05/27 05:01:41;;;;;;;;;;;12.80;99.90;;;;;;5068899;28;19920;-51
2022/05/27 05:04:06;;;;;;;;;;;12.80;99.90;;;;;;5067685;28;20374;-53
2022/05/27 05:06:32;;;;;;;;;;;12.90;99.90;;;;;;5064539;28;20332;-48
2022/05/27 05:08:57;;;;;;;;;;;12.90;99.90;;;;;;5068647;28;19946;-51
2022/05/27 05:11:23;;;;;;;;;;;12.90;99.90;;;;;;5066273;28;19932;-45
2022/05/27 05:13:49;;;;;;;;;;;12.90;99.90;;;;;;5070410;28;20153;-51
2022/05/27 05:16:14;;;;;;;;;;;12.90;99.90;;;;;;5066280;28;19921;-52
2022/05/27 05:18:40;;;;;;;;;;;13.00;99.90;;;;;;5065115;28;20357;-50
2022/05/27 05:21:05;;;;;;;;;;;13.00;99.90;;;;;;5069088;28;19920;-51
2022/05/27 05:23:31;;;;;;;;;;;13.10;99.90;;;;;;5062592;28;20387;-51
2022/05/27 05:25:56;;;;;;;;;;;13.20;99.90;;;;;;5068368;28;20436;-51
2022/05/27 05:28:22;;;;;;;;;;;13.20;99.90;;;;;;5068193;28;20023;-51
2022/05/27 05:30:47;;;;;;;;;;;13.20;99.90;;;;;;5079077;28;20388;-50
2022/05/27 05:33:13;;;;;;;;;;;13.30;99.90;;;;;;5064976;28;19955;-48
2022/05/27 05:35:38;;;;;;;;;;;13.30;99.90;;;;;;5067100;28;20033;-50
2022/05/27 05:38:04;;;;;;;;;;;13.40;99.90;;;;;;5067163;28;20019;-50
2022/05/27 05:40:30;;;;;;;;;;;13.40;99.90;;;;;;5070298;28;19924;-50
2022/05/27 05:42:56;;;;;;;;;;;13.40;99.90;;;;;;5067414;28;19921;-50
2022/05/27 05:45:22;;;;;;;;;;;13.40;99.90;;;;;;5061778;28;19928;-51
2022/05/27 05:47:48;;;;;;;;;;;13.40;99.90;;;;;;5065320;28;20515;-50
2022/05/27 05:50:14;;;;;;;;;;;13.30;99.90;;;;;;5062503;28;20289;-51
2022/05/27 05:52:40;;;;;;;;;;;13.40;99.90;;;;;;5065471;28;19939;-50
2022/05/27 05:55:06;;;;;;;;;;;13.30;99.90;;;;;;5067036;28;19921;-49
2022/05/27 05:57:31;;;;;;;;;;;13.40;99.90;;;;;;5067860;28;19966;-49
2022/05/27 05:59:58;;;;;;;;;;;13.40;99.90;;;;;;5068346;28;19932;-47
2022/05/27 06:02:25;;;;;;;;;;;13.30;99.90;;;;;;5059721;28;19928;-48
2022/05/27 06:04:51;;;;;;;;;;;13.30;99.90;;;;;;5064623;28;20438;-50
2022/05/27 06:07:16;;;;;;;;;;;13.30;99.90;;;;;;5057571;28;19928;-48
2022/05/27 06:09:42;;;;;;;;;;;13.30;99.90;;;;;;5069681;28;19924;-48
2022/05/27 06:12:09;;;;;;;;;;;13.30;99.90;;;;;;5061783;28;20225;-47
2022/05/27 06:14:36;;;;;;;;;;;13.30;99.90;;;;;;5044478;28;20437;-46
2022/05/27 06:17:01;;;;;;;;;;;13.30;99.90;;;;;;5063779;28;19959;-51
2022/05/27 06:19:27;;;;;;;;;;;13.40;99.90;;;;;;5061202;28;20025;-50
2022/05/27 06:21:53;;;;;;;;;;;13.50;99.90;;;;;;5063759;28;19921;-47
2022/05/27 06:24:18;;;;;;;;;;;13.70;99.90;;;;;;5069857;28;20393;-47
2022/05/27 06:26:44;;;;;;;;;;;13.90;99.90;;;;;;5063795;28;19924;-48
2022/05/27 06:34:38;;;;;;;;;;;14.20;99.90;;;;;;5073418;28;19920;-53
2022/05/27 06:37:03;;;;;;;;;;;14.20;99.90;;;;;;5065083;28;20227;-50
2022/05/27 06:39:31;;;;;;;;;;;14.20;99.90;;;;;;5068056;28;19967;-47
2022/05/27 06:41:56;;;;;;;;;;;14.20;99.90;;;;;;5068171;28;19920;-50
2022/05/27 06:44:22;;;;;;;;;;;14.10;99.90;;;;;;5065066;28;19921;-52
2022/05/27 06:46:51;;;;;;;;;;;14.10;99.90;;;;;;5060975;28;20265;-50
2022/05/27 06:49:17;;;;;;;;;;;14.20;99.90;;;;;;5064417;28;20325;-50
2022/05/27 06:51:43;;;;;;;;;;;14.20;99.90;;;;;;5062236;28;20553;-50
2022/05/27 06:54:12;;;;;;;;;;;14.20;99.90;;;;;;5066060;28;20017;-47
2022/05/27 06:56:38;;;;;;;;;;;14.30;99.90;;;;;;5068073;28;19968;-51
2022/05/27 06:59:05;;;;;;;;;;;14.20;99.90;;;;;;5066310;28;19981;-48
2022/05/27 07:01:30;;;;;;;;;;;14.30;99.90;;;;;;5063004;28;19951;-47
2022/05/27 07:03:57;;;;;;;;;;;14.40;99.90;;;;;;5053075;28;19974;-51
2022/05/27 07:06:23;;;;;;;;;;;14.40;99.90;;;;;;5050819;28;19976;-49
2022/05/27 07:08:49;;;;;;;;;;;14.40;99.90;;;;;;5067096;28;19982;-50
2022/05/27 07:11:14;;;;;;;;;;;14.40;99.90;;;;;;5048498;28;19951;-48
2022/05/27 07:13:41;;;;;;;;;;;14.50;99.90;;;;;;5055283;28;19928;-51
2022/05/27 07:16:07;;;;;;;;;;;14.60;99.90;;;;;;5072753;28;19920;-50
2022/05/27 07:18:32;;;;;;;;;;;14.80;99.90;;;;;;5050278;28;19943;-49
2022/05/27 07:21:02;;;;;;;;;;;15.00;99.90;;;;;;5064160;28;19928;-47
2022/05/27 07:23:28;;;;;;;;;;;15.00;99.90;;;;;;5057027;28;19977;-48
2022/05/27 07:25:54;;;;;;;;;;;15.00;99.90;;;;;;5059237;28;20381;-50
2022/05/27 07:28:19;;;;;;;;;;;14.80;99.50;;;;;;5069210;28;20023;-49
2022/05/27 07:30:45;;;;;;;;;;;14.50;99.90;;;;;;5067927;28;19921;-50
2022/05/27 07:33:11;;;;;;;;;;;14.30;97.50;;;;;;5068995;28;19955;-50
2022/05/27 07:35:36;;;;;;;;;;;14.20;97.90;;;;;;5071796;28;20007;-47
2022/05/27 07:38:02;;;;;;;;;;;14.30;98.80;;;;;;5069038;28;19920;-51
2022/05/27 07:40:27;;;;;;;;;;;14.40;97.20;;;;;;5046432;28;19921;-47
2022/05/27 07:42:53;;;;;;;;;;;14.40;92.60;;;;;;5068949;28;19962;-45
2022/05/27 07:45:26;;;;;;;;;;;14.40;90.80;;;;;;5062517;28;19928;-48
2022/05/27 07:47:52;;;;;;;;;;;14.50;90.70;;;;;;5066397;28;19927;-47
2022/05/27 07:50:17;;;;;;;;;;;14.70;91.00;;;;;;5064825;28;19924;-47
2022/05/27 07:52:43;;;;;;;;;;;14.60;78.40;;;;;;5070497;28;19939;-48
2022/05/27 07:55:08;;;;;;;;;;;14.60;78.50;;;;;;5047342;28;19924;-49
2022/05/27 07:57:34;;;;;;;;;;;14.50;79.60;;;;;;5070554;28;20392;-47
2022/05/27 08:00:07;;;;;;;;;;;14.60;79.00;;;;;;5068231;28;20019;-50
2022/05/27 08:02:32;;;;;;;;;;;14.60;77.70;;;;;;5046055;28;20400;-50
2022/05/27 08:04:58;;;;;;;;;;;14.70;81.10;;;;;;5065951;28;19920;-49
2022/05/27 08:07:26;;;;;;;;;;;14.80;81.20;;;;;;5065914;28;19972;-50
2022/05/27 08:09:51;;;;;;;;;;;14.80;75.90;;;;;;5063490;28;19936;-45
2022/05/27 08:12:17;;;;;;;;;;;14.70;78.70;;;;;;5065152;28;19973;-50
2022/05/27 08:14:43;;;;;;;;;;;14.70;79.90;;;;;;5050629;28;20012;-51
2022/05/27 08:17:09;;;;;;;;;;;14.70;83.90;;;;;;5064767;28;19928;-48
2022/05/27 08:19:35;;;;;;;;;;;14.60;83.60;;;;;;5044690;28;19931;-49
2022/05/27 08:22:00;;;;;;;;;;;14.40;78.90;;;;;;5049909;28;20297;-51
2022/05/27 08:24:26;;;;;;;;;;;14.40;76.70;;;;;;5067019;28;20302;-50
2022/05/27 08:26:51;;;;;;;;;;;14.50;79.40;;;;;;5043483;28;19929;-50
2022/05/27 08:29:17;;;;;;;;;;;14.60;79.00;;;;;;5046915;28;19936;-49
2022/05/27 08:31:42;;;;;;;;;;;14.70;70.90;;;;;;5062203;28;19939;-52
2022/05/27 08:39:38;;;;;;;;;;;14.80;72.40;;;;;;5069770;28;19968;-47
2022/05/27 08:42:25;;;;;;;;;;;14.90;76.30;;;;;;5058669;28;19971;-51
2022/05/27 08:45:00;;;;;;;;;;;14.90;75.30;;;;;;5059405;28;19947;-49
2022/05/27 08:47:30;;;;;;;;;;;14.80;75.60;;;;;;5063245;28;20227;-51
2022/05/27 08:50:16;;;;;;;;;;;14.80;74.90;;;;;;5054982;28;19940;-51
2022/05/27 08:52:42;;;;;;;;;;;15.00;76.30;;;;;;5047537;28;19966;-47
2022/05/27 08:59:26;;;;;;;;;;;14.90;75.00;;;;;;5063721;28;19976;-47
2022/05/27 09:00:42;;;;;;;;;;;15.00;75.60;;;;;;5056473;28;20012;-49
2022/05/27 09:03:08;;;;;;;;;;;14.90;70.20;;;;;;5060037;28;19935;-49
2022/05/27 09:05:40;;;;;;;;;;;15.00;71.20;;;;;;5063151;28;19959;-51
2022/05/27 09:08:10;;;;;;;;;;;15.10;73.00;;;;;;5061814;28;20288;-49
2022/05/27 09:10:54;;;;;;;;;;;15.00;72.30;;;;;;5060559;28;20006;-52
2022/05/27 09:13:22;;;;;;;;;;;14.70;70.90;;;;;;5056846;28;20518;-50
2022/05/27 09:15:51;;;;;;;;;;;14.60;71.10;;;;;;5062716;28;19929;-52
2022/05/27 09:18:26;;;;;;;;;;;14.80;74.10;;;;;;5060243;28;19920;-50
2022/05/27 09:21:00;;;;;;;;;;;15.10;72.80;;;;;;5062000;28;19920;-48
2022/05/27 09:23:32;;;;;;;;;;;15.20;70.80;;;;;;5065312;28;19946;-51
2022/05/27 09:26:06;;;;;;;;;;;15.10;68.10;;;;;;5031550;28;19928;-51
2022/05/27 09:28:34;;;;;;;;;;;15.00;66.20;;;;;;5044440;28;20662;-51
2022/05/27 09:31:00;;;;;;;;;;;15.00;67.00;;;;;;5057769;28;20019;-46
2022/05/27 09:33:26;;;;;;;;;;;14.90;65.60;;;;;;5065893;28;20034;-51
2022/05/27 09:35:58;;;;;;;;;;;14.90;66.90;;;;;;5059527;28;20011;-48
2022/05/27 09:38:25;;;;;;;;;;;14.90;66.40;;;;;;5061484;28;19929;-52
2022/05/27 09:40:58;;;;;;;;;;;15.00;66.90;;;;;;5061702;28;20079;-50
2022/05/27 09:43:36;;;;;;;;;;;15.10;65.10;;;;;;5056027;28;19924;-48
2022/05/27 09:46:03;;;;;;;;;;;15.20;68.70;;;;;;5063740;28;19927;-45
2022/05/27 09:48:29;;;;;;;;;;;15.30;67.90;;;;;;5064593;28;19979;-51
2022/05/27 09:50:56;;;;;;;;;;;15.40;64.60;;;;;;5066119;28;19975;-52
2022/05/27 09:53:25;;;;;;;;;;;15.40;65.20;;;;;;5063122;28;19921;-49
2022/05/27 09:55:53;;;;;;;;;;;15.40;65.80;;;;;;5067656;28;19950;-50
2022/05/27 09:58:24;;;;;;;;;;;15.40;66.40;;;;;;5067465;28;19920;-51
2022/05/27 10:00:49;;;;;;;;;;;15.40;66.00;;;;;;5046470;28;19935;-52
2022/05/27 10:03:26;;;;;;;;;;;15.40;66.20;;;;;;5060021;28;19924;-51
2022/05/27 10:05:56;;;;;;;;;;;15.50;68.10;;;;;;5062187;28;20035;-51
2022/05/27 10:08:25;;;;;;;;;;;15.40;63.70;;;;;;5062483;28;19928;-51
2022/05/27 10:11:04;;;;;;;;;;;15.40;63.70;;;;;;5063597;28;19932;-50
2022/05/27 10:13:30;;;;;;;;;;;15.30;65.10;;;;;;5064913;28;19920;-55
2022/05/27 10:16:02;;;;;;;;;;;15.40;69.20;;;;;;5048040;28;19924;-52
2022/05/27 10:18:28;;;;;;;;;;;15.60;67.50;;;;;;5058738;28;20274;-47
2022/05/27 10:21:04;;;;;;;;;;;15.80;67.40;;;;;;5067036;28;19934;-49
2022/05/27 10:23:34;;;;;;;;;;;15.90;65.30;;;;;;5058032;28;19968;-47
2022/05/27 10:26:17;;;;;;;;;;;16.00;65.80;;;;;;5054077;28;20030;-47
2022/05/27 10:28:43;;;;;;;;;;;16.10;66.10;;;;;;5061375;28;19925;-51
2022/05/27 10:31:16;;;;;;;;;;;16.30;65.30;;;;;;5055384;28;20584;-54
2022/05/27 10:33:43;;;;;;;;;;;16.40;62.50;;;;;;5056581;28;19921;-46
2022/05/27 10:36:27;;;;;;;;;;;16.40;60.60;;;;;;5051529;28;19925;-52
2022/05/27 10:39:05;;;;;;;;;;;16.40;62.10;;;;;;5058549;28;19954;-46
2022/05/27 10:41:30;;;;;;;;;;;16.40;61.70;;;;;;5063031;28;20333;-49
2022/05/27 10:44:07;;;;;;;;;;;16.40;61.60;;;;;;5065026;28;19925;-49
2022/05/27 10:46:35;;;;;;;;;;;16.50;64.10;;;;;;5066649;28;19935;-55
2022/05/27 10:49:24;;;;;;;;;;;16.30;62.90;;;;;;5064305;28;19924;-49
2022/05/27 10:51:57;;;;;;;;;;;16.10;65.50;;;;;;5050414;28;19995;-52
2022/05/27 10:54:33;;;;;;;;;;;16.20;66.40;;;;;;5066368;28;19920;-51
2022/05/27 11:02:50;;;;;;;;;;;16.20;62.60;;;;;;5063654;28;19947;-53
2022/05/27 11:05:22;;;;;;;;;;;16.10;62.20;;;;;;5060646;28;20021;-50
2022/05/27 11:07:54;;;;;;;;;;;15.90;63.40;;;;;;5062676;28;20368;-52
2022/05/27 11:10:30;;;;;;;;;;;16.00;63.90;;;;;;5064253;28;20337;-51
2022/05/27 11:16:13;;;;;;;;;;;16.50;68.50;;;;;;5059532;28;20015;-50
2022/05/27 11:18:48;;;;;;;;;;;16.60;66.50;;;;;;5067709;28;19990;-48
2022/05/27 11:21:29;;;;;;;;;;;16.80;66.20;;;;;;5055792;28;20019;-51
2022/05/27 11:24:08;;;;;;;;;;;16.80;64.70;;;;;;5063009;28;19931;-48
2022/05/27 11:26:52;;;;;;;;;;;16.70;65.30;;;;;;5072547;28;19943;-49
2022/05/27 11:29:17;;;;;;;;;;;16.50;66.20;;;;;;5061136;28;19928;-48
2022/05/27 11:31:52;;;;;;;;;;;16.60;68.10;;;;;;5069119;28;20467;-51
2022/05/27 11:34:26;;;;;;;;;;;16.80;65.90;;;;;;5068442;28;20003;-49
2022/05/27 11:36:55;;;;;;;;;;;16.70;66.20;;;;;;5066970;28;19959;-51
2022/05/27 11:39:23;;;;;;;;;;;16.30;63.50;;;;;;5067143;28;19924;-50
2022/05/27 11:42:10;;;;;;;;;;;16.20;66.50;;;;;;5062315;28;20294;-51
2022/05/27 11:44:36;;;;;;;;;;;16.00;68.60;;;;;;5036325;28;19931;-46
2022/05/27 11:47:07;;;;;;;;;;;16.10;70.60;;;;;;5067594;28;19921;-51
2022/05/27 11:49:39;;;;;;;;;;;16.20;65.60;;;;;;5064264;28;20401;-51
2022/05/27 11:52:25;;;;;;;;;;;16.20;65.60;;;;;;5065006;28;20347;-54
2022/05/27 11:55:01;;;;;;;;;;;15.90;66.80;;;;;;5064122;28;19968;-52
2022/05/27 11:57:26;;;;;;;;;;;16.00;70.60;;;;;;5065627;28;20007;-53
2022/05/27 11:59:56;;;;;;;;;;;16.20;72.20;;;;;;5066742;28;20350;-53
2022/05/27 12:02:21;;;;;;;;;;;16.50;73.10;;;;;;5084262;28;19928;-52
2022/05/27 12:04:51;;;;;;;;;;;16.50;69.00;;;;;;5062933;28;19921;-52
2022/05/27 12:07:26;;;;;;;;;;;16.50;66.00;;;;;;5049772;28;19931;-52
2022/05/27 12:09:58;;;;;;;;;;;16.60;65.30;;;;;;5078799;28;21600;-45
2022/05/27 12:12:24;;;;;;;;;;;16.60;64.40;;;;;;5068198;28;19920;-53
2022/05/27 12:14:59;;;;;;;;;;;16.60;66.50;;;;;;5065614;28;20408;-52
2022/05/27 12:17:35;;;;;;;;;;;16.50;65.40;;;;;;5062200;28;19924;-52
2022/05/27 12:20:00;;;;;;;;;;;16.50;68.00;;;;;;5063361;28;20378;-50
2022/05/27 12:22:30;;;;;;;;;;;16.20;64.80;;;;;;5067274;28;19935;-53
2022/05/27 12:25:11;;;;;;;;;;;16.10;65.60;;;;;;5045237;28;20337;-51
2022/05/27 12:27:37;;;;;;;;;;;16.00;65.90;;;;;;5032715;28;20266;-47
2022/05/27 12:30:05;;;;;;;;;;;16.10;66.20;;;;;;5060488;28;19947;-53
2022/05/27 12:32:31;;;;;;;;;;;16.40;68.30;;;;;;5047805;28;19950;-52
2022/05/27 12:35:17;;;;;;;;;;;16.60;64.90;;;;;;5058710;28;19925;-53
2022/05/27 12:38:12;;;;;;;;;;;16.80;65.30;;;;;;5037729;28;20415;-47
2022/05/27 12:40:37;;;;;;;;;;;17.00;65.40;;;;;;5039386;28;19924;-52
2022/05/27 12:43:20;;;;;;;;;;;16.90;63.00;;;;;;5065834;28;19920;-55
2022/05/27 12:46:15;;;;;;;;;;;16.70;60.90;;;;;;5062747;28;19974;-53
2022/05/27 12:48:43;;;;;;;;;;;16.80;60.00;;;;;;5058663;28;19971;-54
2022/05/27 12:51:28;;;;;;;;;;;16.70;59.50;;;;;;5058405;28;19933;-53
2022/05/27 12:53:55;;;;;;;;;;;16.80;61.90;;;;;;5058330;28;19959;-45
2022/05/27 13:02:31;;;;;;;;;;;16.70;63.10;;;;;;5059497;28;19928;-55
2022/05/27 13:05:03;;;;;;;;;;;16.50;61.60;;;;;;5055345;28;19928;-54
2022/05/27 13:07:37;;;;;;;;;;;16.30;62.10;;;;;;5063807;28;19921;-53
2022/05/27 13:10:18;;;;;;;;;;;16.20;63.60;;;;;;5056233;28;19925;-54
2022/05/27 13:12:52;;;;;;;;;;;16.00;65.20;;;;;;5081606;28;20006;-54
2022/05/27 13:15:20;;;;;;;;;;;15.90;66.20;;;;;;5066881;28;19920;-54
2022/05/27 13:17:50;;;;;;;;;;;15.90;68.30;;;;;;5066312;28;19928;-54
2022/05/27 13:20:16;;;;;;;;;;;15.80;67.90;;;;;;5064945;28;19969;-50
2022/05/27 13:23:08;;;;;;;;;;;15.60;68.60;;;;;;5063420;28;19932;-52
2022/05/27 13:25:42;;;;;;;;;;;15.60;69.30;;;;;;5065580;28;19920;-53
2022/05/27 13:28:22;;;;;;;;;;;15.90;65.60;;;;;;5064527;28;20385;-58
2022/05/27 13:30:48;;;;;;;;;;;16.00;64.90;;;;;;5058197;28;19963;-53
2022/05/27 13:33:14;;;;;;;;;;;16.00;64.70;;;;;;5066232;28;20371;-55
2022/05/27 13:35:41;;;;;;;;;;;16.30;66.60;;;;;;5049215;28;19921;-47
2022/05/27 13:38:15;;;;;;;;;;;16.70;64.10;;;;;;5067653;28;19970;-51
2022/05/27 13:40:41;;;;;;;;;;;16.60;62.20;;;;;;5063379;28;19932;-54
2022/05/27 13:43:08;;;;;;;;;;;16.40;63.70;;;;;;5066746;28;19924;-47
2022/05/27 13:45:40;;;;;;;;;;;16.20;66.70;;;;;;5065244;28;19931;-53
2022/05/27 13:48:09;;;;;;;;;;;16.40;67.70;;;;;;5065818;28;19932;-53
2022/05/27 13:50:37;;;;;;;;;;;16.80;63.60;;;;;;5063926;28;19931;-55
2022/05/27 13:53:14;;;;;;;;;;;17.00;62.70;;;;;;5049761;28;20003;-54
2022/05/27 13:55:40;;;;;;;;;;;17.20;63.10;;;;;;5065417;28;19967;-54
2022/05/27 13:58:06;;;;;;;;;;;17.40;62.10;;;;;;5064658;28;20382;-55
2022/05/27 14:00:38;;;;;;;;;;;17.20;62.50;;;;;;5065219;28;19935;-51
2022/05/27 14:03:04;;;;;;;;;;;17.10;62.60;;;;;;5060376;28;20541;-55
2022/05/27 14:05:30;;;;;;;;;;;16.90;60.60;;;;;;5050055;28;20284;-50
2022/05/27 14:07:58;;;;;;;;;;;16.60;61.90;;;;;;5060535;28;19981;-51
2022/05/27 14:10:34;;;;;;;;;;;16.40;63.70;;;;;;5058900;28;19978;-55
2022/05/27 14:13:19;;;;;;;;;;;16.60;64.70;;;;;;5078923;28;20013;-55
2022/05/27 14:15:45;;;;;;;;;;;17.10;60.50;;;;;;5064360;28;19981;-54
2022/05/27 14:18:11;;;;;;;;;;;17.00;58.40;;;;;;5057887;28;19921;-55
2022/05/27 14:23:24;;;;;;;;;;;16.40;63.80;;;;;;5078644;28;19968;-55
2022/05/27 14:25:53;;;;;;;;;;;16.40;66.00;;;;;;5064930;28;19936;-55
2022/05/27 14:28:21;;;;;;;;;;;16.50;65.00;;;;;;5059194;28;19935;-56
2022/05/27 14:30:50;;;;;;;;;;;16.40;65.90;;;;;;5060178;28;19983;-55
2022/05/27 14:33:32;;;;;;;;;;;17.10;64.90;;;;;;5058025;28;20062;-55
2022/05/27 14:35:59;;;;;;;;;;;17.40;58.20;;;;;;5064785;28;19928;-55
2022/05/27 14:38:29;;;;;;;;;;;17.80;59.30;;;;;;5064603;28;20300;-56
2022/05/27 14:40:55;;;;;;;;;;;18.00;58.10;;;;;;5072745;28;20318;-56
2022/05/27 14:43:21;;;;;;;;;;;18.00;58.10;;;;;;5062192;28;19921;-55
2022/05/27 14:45:54;;;;;;;;;;;18.00;57.00;;;;;;5062498;28;19997;-52
2022/05/27 14:48:22;;;;;;;;;;;18.30;57.50;;;;;;5064711;28;20377;-54
2022/05/27 14:50:48;;;;;;;;;;;18.50;56.20;;;;;;5066552;28;20403;-55
2022/05/27 14:53:15;;;;;;;;;;;18.10;56.90;;;;;;5046570;28;20003;-55
2022/05/27 14:55:41;;;;;;;;;;;17.60;59.50;;;;;;5066157;28;20259;-56
2022/05/27 14:58:08;;;;;;;;;;;17.10;60.40;;;;;;5059548;28;19920;-56
2022/05/27 15:00:35;;;;;;;;;;;16.60;62.10;;;;;;5065621;28;20007;-55
2022/05/27 15:03:02;;;;;;;;;;;16.50;66.00;;;;;;5060230;28;19920;-51
2022/05/27 15:05:30;;;;;;;;;;;16.30;65.70;;;;;;5038436;28;20019;-51
2022/05/27 15:07:59;;;;;;;;;;;16.10;66.00;;;;;;5062654;28;19929;-55